Domov               UVHVVR             MKGP            O straneh              
ZDRAVSTVENO VARSTVO RASTLIN
  MREŽA AGROMET. POSTAJ
 ► PROGNOSTIČNA OBVESTILA
AGROMETEOROLOŠKI PODATKI -
ARSO
OBVLADOVANJE TVEGANJ ZARADI
NEUGODNIH VREMENSKIH RAZMER
  ► NARAVNE NESREČE
  ► SUŠA/MOČA
  ► NAMAKANJE
  ► ŽLED (gozdarstvo)
KARTOGRAFSKI PRIKAZI
SPLETNE POVEZAVE
PROJEKTI IN PUBLIKACIJE

AGROMETEOROLOŠKA MREŽA: VREMENSKE POSTAJE IN FENOLOŠKA OPAZOVANJA

Pregled podatkov za lokacijo Maribor - BTŠ, meteorološka postaja 35810

Pregled senzorjev na lokaciji

ID Ime Zadnja
vrednost
Datum in čas
zadnje
spremembe
(Lokalni čas)
Tip
senzorja
4297 Omočenost lista (U) 0 U 4.7.2020 17:00 A730WET
1723 Padavine (mm) 0 mm 4.7.2020 17:00 Generic 0.2 mm
1722 Relativna vlaga 2 m (% RH) 43.76 % RH 4.7.2020 17:00 Generic 0 - 100 %
1721 Temperatura 2 m (°C) 26.62 °C 4.7.2020 17:00 Generic -40 - +60 °C
4296 Smer vetra (°) 50.99 ° 4.7.2020 17:00 Generic 0 - 360
4295 Hitrost vetra (km/h) 1.81 km/h 4.7.2020 17:00 Generic 100 km/h

Pregled podatkov zadnjih 24 ur

Zap.
št.
Datum in čas
(Centralno
evropski čas)
Maribor - BTŠ
Omočenost
lista
Padavine Relativna
vlaga
2
m
Temperatura
2
m
Smer
vetra
Hitrost
vetra
1 4.7.2020 17:30
2 4.7.2020 17:00
3 4.7.2020 16:30
4 4.7.2020 16:00 0 0 43.8 26.6 51 1.8
5 4.7.2020 15:30 0 0 43.8 26.8 57.9 1.7
6 4.7.2020 15:00 0 0 43.8 26.9 37.3 1.6
7 4.7.2020 14:30 0 0 46.1 26.1 138.3 1.2
8 4.7.2020 14:00 0 0 44.3 25.8 241.6 1.3
9 4.7.2020 13:30 0 0 46.7 25.1 251.8 2.6
10 4.7.2020 13:00 0 0 46.4 25.2 217.3 1.3
11 4.7.2020 12:30 0 0 44.5 24.9 177.2 1.1
12 4.7.2020 12:00 0 0 47 25.1 239.5 1.3
13 4.7.2020 11:30 0 0 46.5 25.1 161.2 1.2
14 4.7.2020 11:00 0 0 45.1 24.7 200.6 2
15 4.7.2020 10:30 0 0 45.3 24.4 262.7 2.6
16 4.7.2020 10:00 0 0 47.8 23.7 194.9 2.7
17 4.7.2020 09:30 0 0 51.3 23.2 244.7 3
18 4.7.2020 09:00 0 0 56 22.4 214.4 2.2
19 4.7.2020 08:30 0 0 66 20.6 294.7 3.2
20 4.7.2020 08:00 0 0 72.5 19.1 304.1 2.7
21 4.7.2020 07:30 0 0 76 17.9 324 3.8
22 4.7.2020 07:00 0 0 80.5 16.7 300.7 3.8
23 4.7.2020 06:30 0 0 83.4 15.7 320 3.5
24 4.7.2020 06:00 0 0 85.8 15 296.7 4.5
25 4.7.2020 05:30 0 0 87.4 14.6 293.9 3.6
26 4.7.2020 05:00 0 0 88 14.5 297.5 3.6
27 4.7.2020 04:30 0 0 89 14.5 306.4 3.9
28 4.7.2020 04:00 0 0 89.2 14.6 305.1 3.6
29 4.7.2020 03:30 0 0 90 14.8 311.2 3.7
30 4.7.2020 03:00 0 0 90 15 282.7 3.4
31 4.7.2020 02:30 1 0 89.6 15.2 296.9 3.5
32 4.7.2020 02:00 0 0 90.7 15.4 294 3.2
33 4.7.2020 01:30 0 0 91.5 15.5 278.2 3
34 4.7.2020 01:00 0 0 90 15.8 290.5 3.5
35 4.7.2020 00:30 0 0 90.3 15.8 294.1 3
36 4.7.2020 00:00 0 0 89.5 15.9 302.8 2.5
37 3.7.2020 23:30 0 0 88.6 16 297.6 2.4
38 3.7.2020 23:00 0 0 88.2 16.3 275.7 2.6
39 3.7.2020 22:30 0 0 87.4 16.6 290 2.2
40 3.7.2020 22:00 0 0 89.1 16.6 307.4 2.3
41 3.7.2020 21:30 0 0 89.8 16.9 296.1 2.1
42 3.7.2020 21:00 0 0 93.2 16.7 291.8 1.5
43 3.7.2020 20:30 0 0 93.2 17.1 264.2 0.6
44 3.7.2020 20:00 0 0 89.3 18.4 308.3 0.7
45 3.7.2020 19:30 0 0 80.6 20.5 221.1 0.2
46 3.7.2020 19:00 0 0 75.6 21.3 147.3 0.7
47 3.7.2020 18:30 0 0 71.1 21.7 309.6 0.8
48 3.7.2020 18:00 0 0 69.1 21.5 289.8 1.6
© 2011 Ministrstvo za kmetijstvo, gozdarstvo in prehrano. Vse pravice pridržane.